This is the latest recevied weather packets stored in our database for station/object SP2ARQ-13. If no packets are shown the sender has not sent any weather packets the latest 10 day(s).
| Time | Temp. | Humidity | Pressure | Rain* | Wind** | Luminosity | Snow |
|---|---|---|---|---|---|---|---|
| 1777768965 | 12.78° C | 60% | 1017 hPa | - | - | - | - |
| 1777768064 | 12.78° C | 59% | 1016.9 hPa | - | - | - | - |
| 1777767164 | 13.33° C | 57% | 1017 hPa | - | - | - | - |
| 1777766264 | 13.89° C | 55% | 1017.1 hPa | - | - | - | - |
| 1777765364 | 15° C | 52% | 1017.1 hPa | - | - | - | - |
| 1777764464 | 14.44° C | 52% | 1017.1 hPa | - | - | - | - |
| 1777763566 | 13.89° C | 55% | 1017.4 hPa | - | - | - | - |
| 1777762663 | 14.44° C | 55% | 1017.4 hPa | - | - | - | - |
| 1777761763 | 15° C | 52% | 1017.4 hPa | - | - | - | - |
| 1777760863 | 15.56° C | 50% | 1017.4 hPa | - | - | - | - |
| 1777759963 | 15.56° C | 52% | 1017.5 hPa | - | - | - | - |
| 1777759063 | 15.56° C | 51% | 1017.4 hPa | - | - | - | - |
| 1777758163 | 16.11° C | 50% | 1017.5 hPa | - | - | - | - |
| 1777757262 | 16.11° C | 49% | 1017.5 hPa | - | - | - | - |
| 1777756362 | 16.67° C | 48% | 1017.6 hPa | - | - | - | - |
| 1777755462 | 16.67° C | 48% | 1017.6 hPa | - | - | - | - |
| 1777754562 | 16.67° C | 47% | 1017.5 hPa | - | - | - | - |
| 1777753662 | 17.22° C | 48% | 1017.7 hPa | - | - | - | - |
| 1777752762 | 17.22° C | 48% | 1017.8 hPa | - | - | - | - |
| 1777751861 | 17.78° C | 48% | 1017.9 hPa | - | - | - | - |
| 1777750961 | 18.89° C | 46% | 1017.9 hPa | - | - | - | - |
| 1777750061 | 19.44° C | 43% | 1017.9 hPa | - | - | - | - |
| 1777749162 | 20° C | 43% | 1017.8 hPa | - | - | - | - |
| 1777748260 | 20.56° C | 42% | 1017.9 hPa | - | - | - | - |
| 1777747360 | 21.11° C | 41% | 1017.8 hPa | - | - | - | - |
* Rain since midnight (hover to see other rain measurements)
** Current wind speed in m/s (hover to see current wind gust speed)